Portada
METAR-TAF:

METAR-TAF

Aeroports :

Nukus, Uzbekistan

latitud: 42-28-48N, longitud: 059-37-48E, altitud: 77 m

Observació

L'informe es va fer fa 25 minuts, a les 12:00 UTC
Vent 4 kt del Oest/Nord-Oest
Temperatura 8°C
Humitat 42%
Pressió 1013 hPa
Visibilitat 10 km o més
sense núvols per sota de 1500 mi sense presència de cumulonimbus.

METAR: UTNN 091200Z 29004KT CAVOK 08/M04 Q1013 R33/CLRD60 NOSIG

Hora: 17:25 (12:25 UTC)

Pronòstic

L'informe es va fer fa 1 hora i 25 minuts, a les 11:00 UTC
Pronòstic vàlid del 09 a les 12 UTC al 10 a les 12 UTC
Vent 8 kt del Sud amb ràfegues de 18 kt
Visibilitat 10 km o més
Núvols disperses a una alçada de 3600 ft
Cel cobert a una alçada de 10000 ft
Temporalment
l' 09 a les 12 UTC al 09 a les 22 UTC
Vent 4 kt amb direcció variable
Cel ennuvolat a una alçada de 2400 ft
Cel cobert a una alçada de 10000 ft
pluja

TAF: UTNN 091100Z 0912/1012 19008G18KT 9999 SCT036 OVC100 TEMPO 0912/0922 VRB04KT -RA BKN024 OVC100

Observacions i pronòstics meteorològics de més de 4000 aeroports (METAR i TAF).

Les estacions disponibles són els punts grocs i vermells al mapa.

Posi el ratolí al punt desitjat per veure el nom de l'estació.

Feu clic per veure les observacions i els pronòstics meteorològics.

Per canviar el mapa: feu clic els botons verds amb una creu de color negre per apropar; al botó verd amb un guió per allunyar la imatge; o en les fletxes verdes per a mapes adjacents.


METAR-TAF: